sensor_id;sensor_type;location;lat;lon;timestamp;temperature;humidity
5960;DHT22;3006;50.956;7.002;2022-10-04T00:01:04;12.10;99.90
5960;DHT22;3006;50.956;7.002;2022-10-04T00:03:37;12.00;99.90
5960;DHT22;3006;50.956;7.002;2022-10-04T00:06:13;12.00;99.90
5960;DHT22;3006;50.956;7.002;2022-10-04T00:08:44;11.90;99.90
5960;DHT22;3006;50.956;7.002;2022-10-04T00:11:19;11.90;99.90
5960;DHT22;3006;50.956;7.002;2022-10-04T00:13:51;11.90;99.90
5960;DHT22;3006;50.956;7.002;2022-10-04T00:16:24;12.00;99.90
5960;DHT22;3006;50.956;7.002;2022-10-04T00:19:02;11.90;99.90
5960;DHT22;3006;50.956;7.002;2022-10-04T00:22:17;12.00;99.90
5960;DHT22;3006;50.956;7.002;2022-10-04T00:25:18;11.90;99.90
5960;DHT22;3006;50.956;7.002;2022-10-04T00:31:20;12.00;99.90
5960;DHT22;3006;50.956;7.002;2022-10-04T00:33:56;11.90;99.90
5960;DHT22;3006;50.956;7.002;2022-10-04T00:36:43;11.90;99.90
5960;DHT22;3006;50.956;7.002;2022-10-04T00:42:08;11.90;99.90
5960;DHT22;3006;50.956;7.002;2022-10-04T00:44:44;11.90;99.90
5960;DHT22;3006;50.956;7.002;2022-10-04T00:47:22;11.90;99.90
5960;DHT22;3006;50.956;7.002;2022-10-04T00:49:55;11.90;99.90
5960;DHT22;3006;50.956;7.002;2022-10-04T00:52:29;11.90;99.90
5960;DHT22;3006;50.956;7.002;2022-10-04T00:55:02;11.80;99.90
5960;DHT22;3006;50.956;7.002;2022-10-04T00:57:35;11.80;99.90
5960;DHT22;3006;50.956;7.002;2022-10-04T01:00:07;11.90;99.90
5960;DHT22;3006;50.956;7.002;2022-10-04T01:02:51;11.90;99.90
5960;DHT22;3006;50.956;7.002;2022-10-04T01:05:22;11.90;99.90
5960;DHT22;3006;50.956;7.002;2022-10-04T01:07:56;11.90;99.90
5960;DHT22;3006;50.956;7.002;2022-10-04T01:10:27;11.90;99.90
5960;DHT22;3006;50.956;7.002;2022-10-04T01:13:02;11.90;99.90
5960;DHT22;3006;50.956;7.002;2022-10-04T01:15:35;11.80;99.90
5960;DHT22;3006;50.956;7.002;2022-10-04T01:18:13;11.80;99.90
5960;DHT22;3006;50.956;7.002;2022-10-04T01:20:51;11.80;99.90
5960;DHT22;3006;50.956;7.002;2022-10-04T01:23:37;11.80;99.90
5960;DHT22;3006;50.956;7.002;2022-10-04T01:26:34;11.80;99.90
5960;DHT22;3006;50.956;7.002;2022-10-04T01:29:06;11.80;99.90
5960;DHT22;3006;50.956;7.002;2022-10-04T01:31:37;11.90;99.90
5960;DHT22;3006;50.956;7.002;2022-10-04T01:34:06;11.90;99.90
5960;DHT22;3006;50.956;7.002;2022-10-04T01:36:35;11.80;99.90
5960;DHT22;3006;50.956;7.002;2022-10-04T01:39:06;11.90;99.90
5960;DHT22;3006;50.956;7.002;2022-10-04T01:41:53;11.80;99.90
5960;DHT22;3006;50.956;7.002;2022-10-04T01:44:30;11.80;99.90
5960;DHT22;3006;50.956;7.002;2022-10-04T01:47:02;11.70;99.90
5960;DHT22;3006;50.956;7.002;2022-10-04T01:49:33;11.60;99.90
5960;DHT22;3006;50.956;7.002;2022-10-04T01:52:05;11.60;99.90
5960;DHT22;3006;50.956;7.002;2022-10-04T01:54:39;11.60;99.90
5960;DHT22;3006;50.956;7.002;2022-10-04T01:57:11;11.60;99.90
5960;DHT22;3006;50.956;7.002;2022-10-04T01:59:43;11.60;99.90
5960;DHT22;3006;50.956;7.002;2022-10-04T02:02:20;11.60;99.90
5960;DHT22;3006;50.956;7.002;2022-10-04T02:04:53;11.60;99.90
5960;DHT22;3006;50.956;7.002;2022-10-04T02:07:24;11.60;99.90
5960;DHT22;3006;50.956;7.002;2022-10-04T02:09:59;11.60;99.90
5960;DHT22;3006;50.956;7.002;2022-10-04T02:12:29;11.60;99.90
5960;DHT22;3006;50.956;7.002;2022-10-04T02:14:59;11.60;99.90
5960;DHT22;3006;50.956;7.002;2022-10-04T02:17:30;11.70;99.90
5960;DHT22;3006;50.956;7.002;2022-10-04T02:20:02;11.70;99.90
5960;DHT22;3006;50.956;7.002;2022-10-04T02:22:36;11.70;99.90
5960;DHT22;3006;50.956;7.002;2022-10-04T02:25:07;11.70;99.90
5960;DHT22;3006;50.956;7.002;2022-10-04T02:27:35;11.70;99.90
5960;DHT22;3006;50.956;7.002;2022-10-04T02:30:06;11.70;99.90
5960;DHT22;3006;50.956;7.002;2022-10-04T02:32:36;11.70;99.90
5960;DHT22;3006;50.956;7.002;2022-10-04T02:35:24;11.60;99.90
5960;DHT22;3006;50.956;7.002;2022-10-04T02:38:01;11.60;99.90
5960;DHT22;3006;50.956;7.002;2022-10-04T02:40:34;11.60;99.90
5960;DHT22;3006;50.956;7.002;2022-10-04T02:43:11;11.60;99.90
5960;DHT22;3006;50.956;7.002;2022-10-04T02:45:46;11.50;99.90
5960;DHT22;3006;50.956;7.002;2022-10-04T02:48:30;11.60;99.90
5960;DHT22;3006;50.956;7.002;2022-10-04T02:51:15;11.60;99.90
5960;DHT22;3006;50.956;7.002;2022-10-04T02:53:50;11.50;99.90
5960;DHT22;3006;50.956;7.002;2022-10-04T02:56:22;11.60;99.90
5960;DHT22;3006;50.956;7.002;2022-10-04T02:58:51;11.60;99.90
5960;DHT22;3006;50.956;7.002;2022-10-04T03:01:25;11.50;99.90
5960;DHT22;3006;50.956;7.002;2022-10-04T03:03:55;11.50;99.90
5960;DHT22;3006;50.956;7.002;2022-10-04T03:06:28;11.50;99.90
5960;DHT22;3006;50.956;7.002;2022-10-04T03:09:00;11.40;99.90
5960;DHT22;3006;50.956;7.002;2022-10-04T03:11:33;11.40;99.90
5960;DHT22;3006;50.956;7.002;2022-10-04T03:14:05;11.40;99.90
5960;DHT22;3006;50.956;7.002;2022-10-04T03:16:36;11.40;99.90
5960;DHT22;3006;50.956;7.002;2022-10-04T03:19:05;11.40;99.90
5960;DHT22;3006;50.956;7.002;2022-10-04T03:21:35;11.40;99.90
5960;DHT22;3006;50.956;7.002;2022-10-04T03:24:05;11.40;99.90
5960;DHT22;3006;50.956;7.002;2022-10-04T03:26:37;11.40;99.90
5960;DHT22;3006;50.956;7.002;2022-10-04T03:29:06;11.40;99.90
5960;DHT22;3006;50.956;7.002;2022-10-04T03:31:39;11.40;99.90
5960;DHT22;3006;50.956;7.002;2022-10-04T03:34:13;11.30;99.90
5960;DHT22;3006;50.956;7.002;2022-10-04T03:36:43;11.30;99.90
5960;DHT22;3006;50.956;7.002;2022-10-04T03:39:21;11.30;99.90
5960;DHT22;3006;50.956;7.002;2022-10-04T03:41:54;11.30;99.90
5960;DHT22;3006;50.956;7.002;2022-10-04T03:44:24;11.30;99.90
5960;DHT22;3006;50.956;7.002;2022-10-04T03:46:52;11.30;99.90
5960;DHT22;3006;50.956;7.002;2022-10-04T03:49:29;11.20;99.90
5960;DHT22;3006;50.956;7.002;2022-10-04T03:51:59;11.30;99.90
5960;DHT22;3006;50.956;7.002;2022-10-04T03:54:28;11.30;99.90
5960;DHT22;3006;50.956;7.002;2022-10-04T03:56:59;11.20;99.90
5960;DHT22;3006;50.956;7.002;2022-10-04T03:59:28;11.20;99.90
5960;DHT22;3006;50.956;7.002;2022-10-04T04:02:03;11.20;99.90
5960;DHT22;3006;50.956;7.002;2022-10-04T04:04:41;11.20;99.90
5960;DHT22;3006;50.956;7.002;2022-10-04T04:07:18;11.10;99.90
5960;DHT22;3006;50.956;7.002;2022-10-04T04:09:51;11.20;99.90
5960;DHT22;3006;50.956;7.002;2022-10-04T04:12:23;11.10;99.90
5960;DHT22;3006;50.956;7.002;2022-10-04T04:14:53;11.10;99.90
5960;DHT22;3006;50.956;7.002;2022-10-04T04:17:38;11.10;99.90
5960;DHT22;3006;50.956;7.002;2022-10-04T04:20:21;11.00;99.90
5960;DHT22;3006;50.956;7.002;2022-10-04T04:23:11;11.00;99.90
5960;DHT22;3006;50.956;7.002;2022-10-04T04:25:46;11.00;99.90
5960;DHT22;3006;50.956;7.002;2022-10-04T04:28:24;11.00;99.90
5960;DHT22;3006;50.956;7.002;2022-10-04T04:30:57;11.00;99.90
5960;DHT22;3006;50.956;7.002;2022-10-04T04:33:29;11.00;99.90
5960;DHT22;3006;50.956;7.002;2022-10-04T04:36:03;11.00;99.90
5960;DHT22;3006;50.956;7.002;2022-10-04T04:38:32;11.00;99.90
5960;DHT22;3006;50.956;7.002;2022-10-04T04:41:07;11.00;99.90
5960;DHT22;3006;50.956;7.002;2022-10-04T04:43:42;11.00;99.90
5960;DHT22;3006;50.956;7.002;2022-10-04T04:46:11;11.00;99.90
5960;DHT22;3006;50.956;7.002;2022-10-04T04:48:58;11.00;99.90
5960;DHT22;3006;50.956;7.002;2022-10-04T04:51:31;11.00;99.90
5960;DHT22;3006;50.956;7.002;2022-10-04T04:54:01;10.90;99.90
5960;DHT22;3006;50.956;7.002;2022-10-04T04:56:30;10.90;99.90
5960;DHT22;3006;50.956;7.002;2022-10-04T04:59:02;10.90;99.90
5960;DHT22;3006;50.956;7.002;2022-10-04T05:01:35;10.90;99.90
5960;DHT22;3006;50.956;7.002;2022-10-04T05:04:05;10.90;99.90
5960;DHT22;3006;50.956;7.002;2022-10-04T05:06:35;10.90;99.90
5960;DHT22;3006;50.956;7.002;2022-10-04T05:09:04;10.90;99.90
5960;DHT22;3006;50.956;7.002;2022-10-04T05:11:35;10.90;99.90
5960;DHT22;3006;50.956;7.002;2022-10-04T05:14:07;10.90;99.90
5960;DHT22;3006;50.956;7.002;2022-10-04T05:16:40;10.80;99.90
5960;DHT22;3006;50.956;7.002;2022-10-04T05:19:14;10.80;99.90
5960;DHT22;3006;50.956;7.002;2022-10-04T05:21:44;10.80;99.90
5960;DHT22;3006;50.956;7.002;2022-10-04T05:24:19;10.80;99.90
5960;DHT22;3006;50.956;7.002;2022-10-04T05:26:53;10.80;99.90
5960;DHT22;3006;50.956;7.002;2022-10-04T05:29:25;10.80;99.90
5960;DHT22;3006;50.956;7.002;2022-10-04T05:32:02;10.80;99.90
5960;DHT22;3006;50.956;7.002;2022-10-04T05:34:37;10.80;99.90
5960;DHT22;3006;50.956;7.002;2022-10-04T05:37:26;10.80;99.90
5960;DHT22;3006;50.956;7.002;2022-10-04T05:40:04;10.70;99.90
5960;DHT22;3006;50.956;7.002;2022-10-04T05:42:36;10.80;99.90
5960;DHT22;3006;50.956;7.002;2022-10-04T05:45:15;10.70;99.90
5960;DHT22;3006;50.956;7.002;2022-10-04T05:47:45;10.70;99.90
5960;DHT22;3006;50.956;7.002;2022-10-04T05:50:17;10.70;99.90
5960;DHT22;3006;50.956;7.002;2022-10-04T05:52:48;10.70;99.90
5960;DHT22;3006;50.956;7.002;2022-10-04T05:55:24;10.70;99.90
5960;DHT22;3006;50.956;7.002;2022-10-04T05:58:12;10.70;99.90
5960;DHT22;3006;50.956;7.002;2022-10-04T06:01:07;10.60;99.90
5960;DHT22;3006;50.956;7.002;2022-10-04T06:03:48;10.70;99.90
5960;DHT22;3006;50.956;7.002;2022-10-04T06:06:26;10.70;99.90
5960;DHT22;3006;50.956;7.002;2022-10-04T06:09:06;10.70;99.90
5960;DHT22;3006;50.956;7.002;2022-10-04T06:11:44;10.80;99.90
5960;DHT22;3006;50.956;7.002;2022-10-04T06:17:40;10.80;99.90
5960;DHT22;3006;50.956;7.002;2022-10-04T06:23:14;10.90;99.90
5960;DHT22;3006;50.956;7.002;2022-10-04T06:25:45;10.90;99.90
5960;DHT22;3006;50.956;7.002;2022-10-04T06:28:17;10.90;99.90
5960;DHT22;3006;50.956;7.002;2022-10-04T06:31:22;11.00;99.90
5960;DHT22;3006;50.956;7.002;2022-10-04T06:34:08;11.00;99.90
5960;DHT22;3006;50.956;7.002;2022-10-04T06:36:55;11.00;99.90
5960;DHT22;3006;50.956;7.002;2022-10-04T06:39:44;10.90;99.90
5960;DHT22;3006;50.956;7.002;2022-10-04T06:45:35;11.00;99.90
5960;DHT22;3006;50.956;7.002;2022-10-04T06:51:11;11.10;99.90
5960;DHT22;3006;50.956;7.002;2022-10-04T06:53:54;11.10;99.90
5960;DHT22;3006;50.956;7.002;2022-10-04T06:56:45;11.00;99.90
5960;DHT22;3006;50.956;7.002;2022-10-04T06:59:34;11.00;99.90
5960;DHT22;3006;50.956;7.002;2022-10-04T07:02:07;11.10;99.90
5960;DHT22;3006;50.956;7.002;2022-10-04T07:04:45;11.10;99.90
5960;DHT22;3006;50.956;7.002;2022-10-04T07:07:38;11.20;99.90
5960;DHT22;3006;50.956;7.002;2022-10-04T07:10:28;11.20;99.90
5960;DHT22;3006;50.956;7.002;2022-10-04T07:13:09;11.30;99.90
5960;DHT22;3006;50.956;7.002;2022-10-04T07:15:47;11.30;99.90
5960;DHT22;3006;50.956;7.002;2022-10-04T07:18:23;11.30;99.90
5960;DHT22;3006;50.956;7.002;2022-10-04T07:20:59;11.30;99.90
5960;DHT22;3006;50.956;7.002;2022-10-04T07:23:35;11.30;99.90
5960;DHT22;3006;50.956;7.002;2022-10-04T07:26:19;11.30;99.90
5960;DHT22;3006;50.956;7.002;2022-10-04T07:28:54;11.40;99.90
5960;DHT22;3006;50.956;7.002;2022-10-04T07:31:41;11.40;99.90
5960;DHT22;3006;50.956;7.002;2022-10-04T07:34:15;11.40;99.90
5960;DHT22;3006;50.956;7.002;2022-10-04T07:36:58;11.50;99.90
5960;DHT22;3006;50.956;7.002;2022-10-04T07:39:33;11.60;99.90
5960;DHT22;3006;50.956;7.002;2022-10-04T07:42:18;11.60;99.90
5960;DHT22;3006;50.956;7.002;2022-10-04T07:45:00;11.70;99.90
5960;DHT22;3006;50.956;7.002;2022-10-04T07:47:30;11.70;99.90
5960;DHT22;3006;50.956;7.002;2022-10-04T07:50:23;11.80;99.90
5960;DHT22;3006;50.956;7.002;2022-10-04T07:52:56;11.80;99.90
5960;DHT22;3006;50.956;7.002;2022-10-04T07:55:31;11.80;99.90
5960;DHT22;3006;50.956;7.002;2022-10-04T07:58:16;11.80;99.90
5960;DHT22;3006;50.956;7.002;2022-10-04T08:00:50;11.80;99.90
5960;DHT22;3006;50.956;7.002;2022-10-04T08:03:32;11.90;99.90
5960;DHT22;3006;50.956;7.002;2022-10-04T08:06:08;11.90;99.90
5960;DHT22;3006;50.956;7.002;2022-10-04T08:08:53;12.00;99.90
5960;DHT22;3006;50.956;7.002;2022-10-04T08:11:31;12.10;99.90
5960;DHT22;3006;50.956;7.002;2022-10-04T08:14:12;12.10;99.90
5960;DHT22;3006;50.956;7.002;2022-10-04T08:16:50;12.10;99.90
5960;DHT22;3006;50.956;7.002;2022-10-04T08:19:32;12.10;99.90
5960;DHT22;3006;50.956;7.002;2022-10-04T08:22:16;12.10;99.90
5960;DHT22;3006;50.956;7.002;2022-10-04T08:24:56;12.10;99.90
5960;DHT22;3006;50.956;7.002;2022-10-04T08:27:37;12.10;99.90
5960;DHT22;3006;50.956;7.002;2022-10-04T08:30:11;12.10;99.90
5960;DHT22;3006;50.956;7.002;2022-10-04T08:32:54;12.20;99.90
5960;DHT22;3006;50.956;7.002;2022-10-04T08:35:31;12.30;99.90
5960;DHT22;3006;50.956;7.002;2022-10-04T08:38:26;12.40;99.90
5960;DHT22;3006;50.956;7.002;2022-10-04T08:47:45;12.50;99.90
5960;DHT22;3006;50.956;7.002;2022-10-04T08:50:36;12.50;99.90
5960;DHT22;3006;50.956;7.002;2022-10-04T08:56:25;12.70;99.90
5960;DHT22;3006;50.956;7.002;2022-10-04T08:59:17;12.80;99.90
5960;DHT22;3006;50.956;7.002;2022-10-04T09:05:11;13.10;99.90
5960;DHT22;3006;50.956;7.002;2022-10-04T09:14:16;13.40;99.90
5960;DHT22;3006;50.956;7.002;2022-10-04T09:16:54;13.50;99.90
5960;DHT22;3006;50.956;7.002;2022-10-04T09:19:38;13.60;99.90
5960;DHT22;3006;50.956;7.002;2022-10-04T09:22:41;13.70;99.90
5960;DHT22;3006;50.956;7.002;2022-10-04T09:25:31;13.80;99.90
5960;DHT22;3006;50.956;7.002;2022-10-04T09:28:31;13.90;99.90
5960;DHT22;3006;50.956;7.002;2022-10-04T09:34:13;14.20;99.90
5960;DHT22;3006;50.956;7.002;2022-10-04T09:36:59;14.20;99.90
5960;DHT22;3006;50.956;7.002;2022-10-04T09:40:05;14.30;99.90
5960;DHT22;3006;50.956;7.002;2022-10-04T09:42:45;14.40;99.90
5960;DHT22;3006;50.956;7.002;2022-10-04T09:48:39;14.50;99.90
5960;DHT22;3006;50.956;7.002;2022-10-04T09:51:22;14.60;99.90
5960;DHT22;3006;50.956;7.002;2022-10-04T09:54:02;14.70;99.90
5960;DHT22;3006;50.956;7.002;2022-10-04T09:56:50;14.70;99.90
5960;DHT22;3006;50.956;7.002;2022-10-04T09:59:52;14.80;99.90
5960;DHT22;3006;50.956;7.002;2022-10-04T10:02:57;14.90;99.90
5960;DHT22;3006;50.956;7.002;2022-10-04T10:05:43;14.90;99.90
5960;DHT22;3006;50.956;7.002;2022-10-04T10:08:22;14.80;99.90
5960;DHT22;3006;50.956;7.002;2022-10-04T10:11:02;14.80;99.90
5960;DHT22;3006;50.956;7.002;2022-10-04T10:14:25;14.90;99.90
5960;DHT22;3006;50.956;7.002;2022-10-04T10:17:03;15.00;99.90
5960;DHT22;3006;50.956;7.002;2022-10-04T10:20:02;15.10;99.90
5960;DHT22;3006;50.956;7.002;2022-10-04T10:22:56;15.20;99.90
5960;DHT22;3006;50.956;7.002;2022-10-04T10:25:38;15.30;99.90
5960;DHT22;3006;50.956;7.002;2022-10-04T10:28:41;15.30;99.90
5960;DHT22;3006;50.956;7.002;2022-10-04T10:31:26;15.40;99.90
5960;DHT22;3006;50.956;7.002;2022-10-04T10:34:27;15.50;99.90
5960;DHT22;3006;50.956;7.002;2022-10-04T10:37:07;15.50;99.90
5960;DHT22;3006;50.956;7.002;2022-10-04T10:43:04;15.60;99.90
5960;DHT22;3006;50.956;7.002;2022-10-04T10:45:54;15.60;99.90
5960;DHT22;3006;50.956;7.002;2022-10-04T10:48:40;15.50;99.90
5960;DHT22;3006;50.956;7.002;2022-10-04T10:51:15;15.50;99.90
5960;DHT22;3006;50.956;7.002;2022-10-04T10:54:08;15.60;99.90
5960;DHT22;3006;50.956;7.002;2022-10-04T10:56:49;15.70;99.90
5960;DHT22;3006;50.956;7.002;2022-10-04T10:59:41;15.90;99.90
5960;DHT22;3006;50.956;7.002;2022-10-04T11:12:00;16.40;99.90
5960;DHT22;3006;50.956;7.002;2022-10-04T11:14:45;16.50;99.90
5960;DHT22;3006;50.956;7.002;2022-10-04T11:17:33;16.50;99.90
5960;DHT22;3006;50.956;7.002;2022-10-04T11:20:25;16.50;99.90
5960;DHT22;3006;50.956;7.002;2022-10-04T11:23:38;16.60;99.90
5960;DHT22;3006;50.956;7.002;2022-10-04T11:29:38;16.70;99.90
5960;DHT22;3006;50.956;7.002;2022-10-04T11:35:45;16.90;99.90
5960;DHT22;3006;50.956;7.002;2022-10-04T11:38:29;17.00;99.90
5960;DHT22;3006;50.956;7.002;2022-10-04T11:41:20;17.00;99.90
5960;DHT22;3006;50.956;7.002;2022-10-04T11:44:13;17.00;99.90
5960;DHT22;3006;50.956;7.002;2022-10-04T11:46:52;17.00;99.90
5960;DHT22;3006;50.956;7.002;2022-10-04T11:49:32;17.00;99.90
5960;DHT22;3006;50.956;7.002;2022-10-04T11:55:45;17.20;99.90
5960;DHT22;3006;50.956;7.002;2022-10-04T11:58:28;17.30;99.90
5960;DHT22;3006;50.956;7.002;2022-10-04T12:07:24;17.50;99.90
5960;DHT22;3006;50.956;7.002;2022-10-04T12:10:01;17.50;99.90
5960;DHT22;3006;50.956;7.002;2022-10-04T12:12:48;17.60;99.90
5960;DHT22;3006;50.956;7.002;2022-10-04T12:15:54;17.80;99.90
5960;DHT22;3006;50.956;7.002;2022-10-04T12:21:40;18.10;99.90
5960;DHT22;3006;50.956;7.002;2022-10-04T12:24:27;18.10;99.90
5960;DHT22;3006;50.956;7.002;2022-10-04T12:27:17;18.30;99.90
5960;DHT22;3006;50.956;7.002;2022-10-04T12:30:03;18.40;99.90
5960;DHT22;3006;50.956;7.002;2022-10-04T12:32:49;18.50;99.90
5960;DHT22;3006;50.956;7.002;2022-10-04T12:35:31;18.60;99.90
5960;DHT22;3006;50.956;7.002;2022-10-04T12:38:30;18.70;99.90
5960;DHT22;3006;50.956;7.002;2022-10-04T12:41:10;18.80;99.90
5960;DHT22;3006;50.956;7.002;2022-10-04T12:43:55;18.90;99.90
5960;DHT22;3006;50.956;7.002;2022-10-04T12:46:33;19.00;99.90
5960;DHT22;3006;50.956;7.002;2022-10-04T12:49:15;19.20;99.90
5960;DHT22;3006;50.956;7.002;2022-10-04T12:51:52;19.30;99.90
5960;DHT22;3006;50.956;7.002;2022-10-04T12:54:35;19.30;99.90
5960;DHT22;3006;50.956;7.002;2022-10-04T12:57:23;19.40;99.90
5960;DHT22;3006;50.956;7.002;2022-10-04T12:59:58;19.60;99.90
5960;DHT22;3006;50.956;7.002;2022-10-04T13:02:44;19.60;99.90
5960;DHT22;3006;50.956;7.002;2022-10-04T13:05:25;19.60;99.90
5960;DHT22;3006;50.956;7.002;2022-10-04T13:08:04;19.80;99.90
5960;DHT22;3006;50.956;7.002;2022-10-04T13:10:45;19.90;99.90
5960;DHT22;3006;50.956;7.002;2022-10-04T13:13:43;20.10;99.90
5960;DHT22;3006;50.956;7.002;2022-10-04T13:16:24;20.10;99.90
5960;DHT22;3006;50.956;7.002;2022-10-04T13:19:23;20.20;99.90
5960;DHT22;3006;50.956;7.002;2022-10-04T13:22:20;20.20;99.90
5960;DHT22;3006;50.956;7.002;2022-10-04T13:25:35;20.40;99.90
5960;DHT22;3006;50.956;7.002;2022-10-04T13:28:12;20.70;99.90
5960;DHT22;3006;50.956;7.002;2022-10-04T13:30:46;20.80;99.90
5960;DHT22;3006;50.956;7.002;2022-10-04T13:33:21;21.00;99.90
5960;DHT22;3006;50.956;7.002;2022-10-04T13:35:56;21.20;99.90
5960;DHT22;3006;50.956;7.002;2022-10-04T13:38:57;21.30;99.90
5960;DHT22;3006;50.956;7.002;2022-10-04T13:41:38;21.60;99.60
5960;DHT22;3006;50.956;7.002;2022-10-04T13:44:21;21.80;99.50
5960;DHT22;3006;50.956;7.002;2022-10-04T13:47:09;22.10;98.90
5960;DHT22;3006;50.956;7.002;2022-10-04T13:49:54;22.20;98.40
5960;DHT22;3006;50.956;7.002;2022-10-04T13:52:38;22.50;98.40
5960;DHT22;3006;50.956;7.002;2022-10-04T13:55:48;22.90;97.70
5960;DHT22;3006;50.956;7.002;2022-10-04T13:58:45;23.70;96.10
5960;DHT22;3006;50.956;7.002;2022-10-04T14:01:30;24.50;94.80
5960;DHT22;3006;50.956;7.002;2022-10-04T14:04:16;25.30;93.40
5960;DHT22;3006;50.956;7.002;2022-10-04T14:07:28;26.20;92.30
5960;DHT22;3006;50.956;7.002;2022-10-04T14:10:16;27.30;90.30
5960;DHT22;3006;50.956;7.002;2022-10-04T14:16:13;29.00;83.30
5960;DHT22;3006;50.956;7.002;2022-10-04T14:19:11;30.00;79.80
5960;DHT22;3006;50.956;7.002;2022-10-04T14:22:29;30.50;75.50
5960;DHT22;3006;50.956;7.002;2022-10-04T14:25:27;30.80;72.90
5960;DHT22;3006;50.956;7.002;2022-10-04T14:28:17;30.90;70.30
5960;DHT22;3006;50.956;7.002;2022-10-04T14:31:08;31.00;69.20
5960;DHT22;3006;50.956;7.002;2022-10-04T14:34:10;30.90;68.50
5960;DHT22;3006;50.956;7.002;2022-10-04T14:39:55;27.60;73.30
5960;DHT22;3006;50.956;7.002;2022-10-04T14:42:43;25.80;76.90
5960;DHT22;3006;50.956;7.002;2022-10-04T14:45:20;24.30;81.40
5960;DHT22;3006;50.956;7.002;2022-10-04T14:48:19;23.40;85.20
5960;DHT22;3006;50.956;7.002;2022-10-04T14:51:13;22.60;90.00
5960;DHT22;3006;50.956;7.002;2022-10-04T14:53:53;22.10;91.10
5960;DHT22;3006;50.956;7.002;2022-10-04T14:56:39;21.70;92.00
5960;DHT22;3006;50.956;7.002;2022-10-04T14:59:29;21.30;92.90
5960;DHT22;3006;50.956;7.002;2022-10-04T15:02:27;21.10;95.00
5960;DHT22;3006;50.956;7.002;2022-10-04T15:07:53;20.80;98.30
5960;DHT22;3006;50.956;7.002;2022-10-04T15:10:26;20.70;97.80
5960;DHT22;3006;50.956;7.002;2022-10-04T15:13:02;20.70;97.30
5960;DHT22;3006;50.956;7.002;2022-10-04T15:15:56;20.60;97.90
5960;DHT22;3006;50.956;7.002;2022-10-04T15:18:35;20.60;99.10
5960;DHT22;3006;50.956;7.002;2022-10-04T15:21:11;20.50;99.90
5960;DHT22;3006;50.956;7.002;2022-10-04T15:23:51;20.50;99.00
5960;DHT22;3006;50.956;7.002;2022-10-04T15:26:49;20.50;98.80
5960;DHT22;3006;50.956;7.002;2022-10-04T15:29:24;20.50;98.80
5960;DHT22;3006;50.956;7.002;2022-10-04T15:32:04;20.40;98.90
5960;DHT22;3006;50.956;7.002;2022-10-04T15:34:41;20.40;99.30
5960;DHT22;3006;50.956;7.002;2022-10-04T15:37:20;20.40;99.20
5960;DHT22;3006;50.956;7.002;2022-10-04T15:40:02;20.40;99.00
5960;DHT22;3006;50.956;7.002;2022-10-04T15:42:36;20.30;99.00
5960;DHT22;3006;50.956;7.002;2022-10-04T15:45:25;20.30;99.40
5960;DHT22;3006;50.956;7.002;2022-10-04T15:48:05;20.20;99.50
5960;DHT22;3006;50.956;7.002;2022-10-04T15:50:42;20.20;99.90
5960;DHT22;3006;50.956;7.002;2022-10-04T15:53:48;20.10;99.80
5960;DHT22;3006;50.956;7.002;2022-10-04T15:56:34;20.00;99.90
5960;DHT22;3006;50.956;7.002;2022-10-04T15:59:24;20.00;99.90
5960;DHT22;3006;50.956;7.002;2022-10-04T16:02:27;20.00;99.90
5960;DHT22;3006;50.956;7.002;2022-10-04T16:05:10;19.90;99.90
5960;DHT22;3006;50.956;7.002;2022-10-04T16:11:14;19.80;99.90
5960;DHT22;3006;50.956;7.002;2022-10-04T16:14:06;19.80;99.90
5960;DHT22;3006;50.956;7.002;2022-10-04T16:16:53;19.80;99.90
5960;DHT22;3006;50.956;7.002;2022-10-04T16:19:38;19.70;99.90
5960;DHT22;3006;50.956;7.002;2022-10-04T16:22:13;19.60;99.90
5960;DHT22;3006;50.956;7.002;2022-10-04T16:24:45;19.50;99.90
5960;DHT22;3006;50.956;7.002;2022-10-04T16:30:22;19.40;99.90
5960;DHT22;3006;50.956;7.002;2022-10-04T16:33:05;19.30;99.90
5960;DHT22;3006;50.956;7.002;2022-10-04T16:35:41;19.30;99.90
5960;DHT22;3006;50.956;7.002;2022-10-04T16:38:22;19.20;99.90
5960;DHT22;3006;50.956;7.002;2022-10-04T16:41:11;19.20;99.90
5960;DHT22;3006;50.956;7.002;2022-10-04T16:43:50;19.10;99.90
5960;DHT22;3006;50.956;7.002;2022-10-04T16:46:24;19.10;99.90
5960;DHT22;3006;50.956;7.002;2022-10-04T16:48:58;19.00;99.90
5960;DHT22;3006;50.956;7.002;2022-10-04T17:01:54;18.70;99.90
5960;DHT22;3006;50.956;7.002;2022-10-04T17:04:38;18.50;99.90
5960;DHT22;3006;50.956;7.002;2022-10-04T17:07:16;18.40;99.90
5960;DHT22;3006;50.956;7.002;2022-10-04T17:09:47;18.30;99.90
5960;DHT22;3006;50.956;7.002;2022-10-04T17:12:17;18.20;99.90
5960;DHT22;3006;50.956;7.002;2022-10-04T17:15:04;18.10;99.90
5960;DHT22;3006;50.956;7.002;2022-10-04T17:17:44;18.00;99.90
5960;DHT22;3006;50.956;7.002;2022-10-04T17:20:24;18.00;99.90
5960;DHT22;3006;50.956;7.002;2022-10-04T17:23:21;17.90;99.90
5960;DHT22;3006;50.956;7.002;2022-10-04T17:25:58;17.90;99.90
5960;DHT22;3006;50.956;7.002;2022-10-04T17:28:33;17.80;99.90
5960;DHT22;3006;50.956;7.002;2022-10-04T17:31:14;17.80;99.90
5960;DHT22;3006;50.956;7.002;2022-10-04T17:33:52;17.80;99.90
5960;DHT22;3006;50.956;7.002;2022-10-04T17:36:34;17.80;99.90
5960;DHT22;3006;50.956;7.002;2022-10-04T17:39:20;17.70;99.90
5960;DHT22;3006;50.956;7.002;2022-10-04T17:42:10;17.70;99.90
5960;DHT22;3006;50.956;7.002;2022-10-04T17:44:52;17.60;99.90
5960;DHT22;3006;50.956;7.002;2022-10-04T17:47:27;17.50;99.90
5960;DHT22;3006;50.956;7.002;2022-10-04T17:50:25;17.50;99.90
5960;DHT22;3006;50.956;7.002;2022-10-04T17:53:18;17.40;99.90
5960;DHT22;3006;50.956;7.002;2022-10-04T17:56:06;17.30;99.90
5960;DHT22;3006;50.956;7.002;2022-10-04T17:58:41;17.20;99.90
5960;DHT22;3006;50.956;7.002;2022-10-04T18:01:15;17.20;99.90
5960;DHT22;3006;50.956;7.002;2022-10-04T18:03:48;17.10;99.90
5960;DHT22;3006;50.956;7.002;2022-10-04T18:06:28;17.10;99.90
5960;DHT22;3006;50.956;7.002;2022-10-04T18:09:02;17.00;99.90
5960;DHT22;3006;50.956;7.002;2022-10-04T18:11:40;16.90;99.90
5960;DHT22;3006;50.956;7.002;2022-10-04T18:17:06;16.90;99.90
5960;DHT22;3006;50.956;7.002;2022-10-04T18:19:39;16.80;99.90
5960;DHT22;3006;50.956;7.002;2022-10-04T18:22:14;16.80;99.90
5960;DHT22;3006;50.956;7.002;2022-10-04T18:24:43;16.80;99.90
5960;DHT22;3006;50.956;7.002;2022-10-04T18:27:20;16.70;99.90
5960;DHT22;3006;50.956;7.002;2022-10-04T18:30:10;16.80;99.90
5960;DHT22;3006;50.956;7.002;2022-10-04T18:32:43;16.90;99.90
5960;DHT22;3006;50.956;7.002;2022-10-04T18:35:26;17.00;99.90
5960;DHT22;3006;50.956;7.002;2022-10-04T18:37:57;17.00;99.90
5960;DHT22;3006;50.956;7.002;2022-10-04T18:40:40;17.00;99.90
5960;DHT22;3006;50.956;7.002;2022-10-04T18:43:23;17.00;99.90
5960;DHT22;3006;50.956;7.002;2022-10-04T18:46:00;16.90;99.90
5960;DHT22;3006;50.956;7.002;2022-10-04T18:48:42;16.90;99.90
5960;DHT22;3006;50.956;7.002;2022-10-04T18:51:24;16.90;99.90
5960;DHT22;3006;50.956;7.002;2022-10-04T18:54:13;16.80;99.90
5960;DHT22;3006;50.956;7.002;2022-10-04T18:56:53;16.80;99.90
5960;DHT22;3006;50.956;7.002;2022-10-04T18:59:32;16.80;99.90
5960;DHT22;3006;50.956;7.002;2022-10-04T19:02:27;16.70;99.90
5960;DHT22;3006;50.956;7.002;2022-10-04T19:05:05;16.70;99.90
5960;DHT22;3006;50.956;7.002;2022-10-04T19:07:42;16.70;99.90
5960;DHT22;3006;50.956;7.002;2022-10-04T19:10:23;16.60;99.90
5960;DHT22;3006;50.956;7.002;2022-10-04T19:13:01;16.60;99.90
5960;DHT22;3006;50.956;7.002;2022-10-04T19:15:45;16.50;99.90